sensor_id;sensor_type;location;lat;lon;timestamp;P1;P2;P0
60816;PMS5003;51921;51.518;-3.188;2023-05-07T00:01:10;26;26;
60816;PMS5003;51921;51.518;-3.188;2023-05-07T00:03:35;24;23;
60816;PMS5003;51921;51.518;-3.188;2023-05-07T00:06:01;32;29;
60816;PMS5003;51921;51.518;-3.188;2023-05-07T00:08:27;32;29;
60816;PMS5003;51921;51.518;-3.188;2023-05-07T00:10:52;30;29;
60816;PMS5003;51921;51.518;-3.188;2023-05-07T00:13:17;28;27;
60816;PMS5003;51921;51.518;-3.188;2023-05-07T00:15:42;33;31;
60816;PMS5003;51921;51.518;-3.188;2023-05-07T00:18:08;31;28;
60816;PMS5003;51921;51.518;-3.188;2023-05-07T00:20:33;36;33;
60816;PMS5003;51921;51.518;-3.188;2023-05-07T00:22:59;38;34;
60816;PMS5003;51921;51.518;-3.188;2023-05-07T00:25:24;46;41;
60816;PMS5003;51921;51.518;-3.188;2023-05-07T00:27:49;41;36;
60816;PMS5003;51921;51.518;-3.188;2023-05-07T00:30:15;40;38;
60816;PMS5003;51921;51.518;-3.188;2023-05-07T00:32:40;43;39;
60816;PMS5003;51921;51.518;-3.188;2023-05-07T00:35:06;42;38;
60816;PMS5003;51921;51.518;-3.188;2023-05-07T00:37:32;39;36;
60816;PMS5003;51921;51.518;-3.188;2023-05-07T00:39:57;41;34;
60816;PMS5003;51921;51.518;-3.188;2023-05-07T00:42:22;37;34;
60816;PMS5003;51921;51.518;-3.188;2023-05-07T00:44:48;36;36;
60816;PMS5003;51921;51.518;-3.188;2023-05-07T00:47:13;38;33;
60816;PMS5003;51921;51.518;-3.188;2023-05-07T00:49:39;34;29;
60816;PMS5003;51921;51.518;-3.188;2023-05-07T00:52:03;38;34;
60816;PMS5003;51921;51.518;-3.188;2023-05-07T00:54:29;29;29;
60816;PMS5003;51921;51.518;-3.188;2023-05-07T00:56:54;33;31;
60816;PMS5003;51921;51.518;-3.188;2023-05-07T00:59:20;33;32;
60816;PMS5003;51921;51.518;-3.188;2023-05-07T01:01:46;28;27;
60816;PMS5003;51921;51.518;-3.188;2023-05-07T01:04:11;38;34;
60816;PMS5003;51921;51.518;-3.188;2023-05-07T01:06:37;34;34;
60816;PMS5003;51921;51.518;-3.188;2023-05-07T01:09:02;31;30;
60816;PMS5003;51921;51.518;-3.188;2023-05-07T01:11:28;37;34;
60816;PMS5003;51921;51.518;-3.188;2023-05-07T01:13:53;33;31;
60816;PMS5003;51921;51.518;-3.188;2023-05-07T01:16:19;28;25;
60816;PMS5003;51921;51.518;-3.188;2023-05-07T01:18:44;32;29;
60816;PMS5003;51921;51.518;-3.188;2023-05-07T01:21:10;29;28;
60816;PMS5003;51921;51.518;-3.188;2023-05-07T01:23:35;27;26;
60816;PMS5003;51921;51.518;-3.188;2023-05-07T01:26:00;26;24;
60816;PMS5003;51921;51.518;-3.188;2023-05-07T01:28:26;33;31;
60816;PMS5003;51921;51.518;-3.188;2023-05-07T01:30:53;36;34;
60816;PMS5003;51921;51.518;-3.188;2023-05-07T01:33:18;36;36;
60816;PMS5003;51921;51.518;-3.188;2023-05-07T01:35:43;33;32;
60816;PMS5003;51921;51.518;-3.188;2023-05-07T01:38:13;32;30;
60816;PMS5003;51921;51.518;-3.188;2023-05-07T01:40:33;33;32;
60816;PMS5003;51921;51.518;-3.188;2023-05-07T01:42:59;41;36;
60816;PMS5003;51921;51.518;-3.188;2023-05-07T01:45:24;37;35;
60816;PMS5003;51921;51.518;-3.188;2023-05-07T01:47:49;35;31;
60816;PMS5003;51921;51.518;-3.188;2023-05-07T01:50:14;30;29;
60816;PMS5003;51921;51.518;-3.188;2023-05-07T01:52:40;31;31;
60816;PMS5003;51921;51.518;-3.188;2023-05-07T01:55:06;29;27;
60816;PMS5003;51921;51.518;-3.188;2023-05-07T01:57:31;31;30;
60816;PMS5003;51921;51.518;-3.188;2023-05-07T01:59:56;28;28;
60816;PMS5003;51921;51.518;-3.188;2023-05-07T02:02:21;29;25;
60816;PMS5003;51921;51.518;-3.188;2023-05-07T02:04:47;27;26;
60816;PMS5003;51921;51.518;-3.188;2023-05-07T02:07:12;30;28;
60816;PMS5003;51921;51.518;-3.188;2023-05-07T02:09:37;27;27;
60816;PMS5003;51921;51.518;-3.188;2023-05-07T02:12:03;30;28;
60816;PMS5003;51921;51.518;-3.188;2023-05-07T02:14:28;37;33;
60816;PMS5003;51921;51.518;-3.188;2023-05-07T02:16:54;33;29;
60816;PMS5003;51921;51.518;-3.188;2023-05-07T02:19:20;32;30;
60816;PMS5003;51921;51.518;-3.188;2023-05-07T02:21:45;27;27;
60816;PMS5003;51921;51.518;-3.188;2023-05-07T02:24:10;37;33;
60816;PMS5003;51921;51.518;-3.188;2023-05-07T02:26:36;30;29;
60816;PMS5003;51921;51.518;-3.188;2023-05-07T02:29:01;33;29;
60816;PMS5003;51921;51.518;-3.188;2023-05-07T02:31:27;31;29;
60816;PMS5003;51921;51.518;-3.188;2023-05-07T02:33:52;27;26;
60816;PMS5003;51921;51.518;-3.188;2023-05-07T02:36:18;29;28;
60816;PMS5003;51921;51.518;-3.188;2023-05-07T02:38:43;22;21;
60816;PMS5003;51921;51.518;-3.188;2023-05-07T02:41:08;22;20;
60816;PMS5003;51921;51.518;-3.188;2023-05-07T02:43:34;20;18;
60816;PMS5003;51921;51.518;-3.188;2023-05-07T02:46:00;20;19;
60816;PMS5003;51921;51.518;-3.188;2023-05-07T02:48:25;19;18;
60816;PMS5003;51921;51.518;-3.188;2023-05-07T02:50:50;20;18;
60816;PMS5003;51921;51.518;-3.188;2023-05-07T02:53:16;19;17;
60816;PMS5003;51921;51.518;-3.188;2023-05-07T02:55:42;15;15;
60816;PMS5003;51921;51.518;-3.188;2023-05-07T02:58:07;22;20;
60816;PMS5003;51921;51.518;-3.188;2023-05-07T03:00:33;14;14;
60816;PMS5003;51921;51.518;-3.188;2023-05-07T03:02:59;16;15;
60816;PMS5003;51921;51.518;-3.188;2023-05-07T03:05:24;17;17;
60816;PMS5003;51921;51.518;-3.188;2023-05-07T03:07:50;15;15;
60816;PMS5003;51921;51.518;-3.188;2023-05-07T03:10:15;15;15;
60816;PMS5003;51921;51.518;-3.188;2023-05-07T03:12:40;16;16;
60816;PMS5003;51921;51.518;-3.188;2023-05-07T03:15:07;17;16;
60816;PMS5003;51921;51.518;-3.188;2023-05-07T03:17:32;16;15;
60816;PMS5003;51921;51.518;-3.188;2023-05-07T03:19:57;15;15;
60816;PMS5003;51921;51.518;-3.188;2023-05-07T03:22:22;13;13;
60816;PMS5003;51921;51.518;-3.188;2023-05-07T03:24:48;13;11;
60816;PMS5003;51921;51.518;-3.188;2023-05-07T03:27:13;16;14;
60816;PMS5003;51921;51.518;-3.188;2023-05-07T03:29:39;13;12;
60816;PMS5003;51921;51.518;-3.188;2023-05-07T03:32:04;11;11;
60816;PMS5003;51921;51.518;-3.188;2023-05-07T03:34:30;15;12;
60816;PMS5003;51921;51.518;-3.188;2023-05-07T03:36:55;12;11;
60816;PMS5003;51921;51.518;-3.188;2023-05-07T03:39:20;13;12;
60816;PMS5003;51921;51.518;-3.188;2023-05-07T03:41:46;13;13;
60816;PMS5003;51921;51.518;-3.188;2023-05-07T03:44:11;12;11;
60816;PMS5003;51921;51.518;-3.188;2023-05-07T03:46:37;12;11;
60816;PMS5003;51921;51.518;-3.188;2023-05-07T03:49:02;10;10;
60816;PMS5003;51921;51.518;-3.188;2023-05-07T03:51:28;12;12;
60816;PMS5003;51921;51.518;-3.188;2023-05-07T03:53:53;12;11;
60816;PMS5003;51921;51.518;-3.188;2023-05-07T03:56:19;12;11;
60816;PMS5003;51921;51.518;-3.188;2023-05-07T03:58:44;10;9;
60816;PMS5003;51921;51.518;-3.188;2023-05-07T04:01:09;11;10;
60816;PMS5003;51921;51.518;-3.188;2023-05-07T04:03:35;11;10;
60816;PMS5003;51921;51.518;-3.188;2023-05-07T04:06:00;11;10;
60816;PMS5003;51921;51.518;-3.188;2023-05-07T04:08:26;10;9;
60816;PMS5003;51921;51.518;-3.188;2023-05-07T04:10:54;10;10;
60816;PMS5003;51921;51.518;-3.188;2023-05-07T04:13:16;10;10;
60816;PMS5003;51921;51.518;-3.188;2023-05-07T04:15:42;11;11;
60816;PMS5003;51921;51.518;-3.188;2023-05-07T04:18:07;12;12;
60816;PMS5003;51921;51.518;-3.188;2023-05-07T04:20:33;12;11;
60816;PMS5003;51921;51.518;-3.188;2023-05-07T04:22:58;12;11;
60816;PMS5003;51921;51.518;-3.188;2023-05-07T04:25:24;13;13;
60816;PMS5003;51921;51.518;-3.188;2023-05-07T04:27:49;12;11;
60816;PMS5003;51921;51.518;-3.188;2023-05-07T04:30:15;9;9;
60816;PMS5003;51921;51.518;-3.188;2023-05-07T04:32:40;10;9;
60816;PMS5003;51921;51.518;-3.188;2023-05-07T04:35:06;9;9;
60816;PMS5003;51921;51.518;-3.188;2023-05-07T04:37:31;7;7;
60816;PMS5003;51921;51.518;-3.188;2023-05-07T04:39:57;8;8;
60816;PMS5003;51921;51.518;-3.188;2023-05-07T04:42:22;8;7;
60816;PMS5003;51921;51.518;-3.188;2023-05-07T04:44:47;6;6;
60816;PMS5003;51921;51.518;-3.188;2023-05-07T04:47:13;9;7;
60816;PMS5003;51921;51.518;-3.188;2023-05-07T04:49:38;10;10;
60816;PMS5003;51921;51.518;-3.188;2023-05-07T04:52:04;9;8;
60816;PMS5003;51921;51.518;-3.188;2023-05-07T04:54:29;9;9;
60816;PMS5003;51921;51.518;-3.188;2023-05-07T04:56:55;8;8;
60816;PMS5003;51921;51.518;-3.188;2023-05-07T04:59:20;9;8;
60816;PMS5003;51921;51.518;-3.188;2023-05-07T05:01:46;8;8;
60816;PMS5003;51921;51.518;-3.188;2023-05-07T05:04:11;10;10;
60816;PMS5003;51921;51.518;-3.188;2023-05-07T05:06:37;8;8;
60816;PMS5003;51921;51.518;-3.188;2023-05-07T05:09:02;7;7;
60816;PMS5003;51921;51.518;-3.188;2023-05-07T05:11:27;8;8;
60816;PMS5003;51921;51.518;-3.188;2023-05-07T05:13:53;7;7;
60816;PMS5003;51921;51.518;-3.188;2023-05-07T05:16:18;7;7;
60816;PMS5003;51921;51.518;-3.188;2023-05-07T05:18:44;7;7;
60816;PMS5003;51921;51.518;-3.188;2023-05-07T05:21:09;7;7;
60816;PMS5003;51921;51.518;-3.188;2023-05-07T05:23:35;7;7;
60816;PMS5003;51921;51.518;-3.188;2023-05-07T05:26:00;7;7;
60816;PMS5003;51921;51.518;-3.188;2023-05-07T05:28:25;4;4;
60816;PMS5003;51921;51.518;-3.188;2023-05-07T05:30:51;7;7;
60816;PMS5003;51921;51.518;-3.188;2023-05-07T05:33:16;6;5;
60816;PMS5003;51921;51.518;-3.188;2023-05-07T05:35:42;9;7;
60816;PMS5003;51921;51.518;-3.188;2023-05-07T05:38:07;7;6;
60816;PMS5003;51921;51.518;-3.188;2023-05-07T05:40:33;8;8;
60816;PMS5003;51921;51.518;-3.188;2023-05-07T05:42:58;8;7;
60816;PMS5003;51921;51.518;-3.188;2023-05-07T05:45:24;7;7;
60816;PMS5003;51921;51.518;-3.188;2023-05-07T05:47:49;9;7;
60816;PMS5003;51921;51.518;-3.188;2023-05-07T05:50:14;8;7;
60816;PMS5003;51921;51.518;-3.188;2023-05-07T05:52:40;8;7;
60816;PMS5003;51921;51.518;-3.188;2023-05-07T05:55:06;7;6;
60816;PMS5003;51921;51.518;-3.188;2023-05-07T05:57:31;6;6;
60816;PMS5003;51921;51.518;-3.188;2023-05-07T05:59:56;8;8;
60816;PMS5003;51921;51.518;-3.188;2023-05-07T06:02:22;8;8;
60816;PMS5003;51921;51.518;-3.188;2023-05-07T06:04:47;7;7;
60816;PMS5003;51921;51.518;-3.188;2023-05-07T06:07:13;9;8;
60816;PMS5003;51921;51.518;-3.188;2023-05-07T06:09:38;7;6;
60816;PMS5003;51921;51.518;-3.188;2023-05-07T06:12:03;7;6;
60816;PMS5003;51921;51.518;-3.188;2023-05-07T06:14:29;5;5;
60816;PMS5003;51921;51.518;-3.188;2023-05-07T06:16:54;6;6;
60816;PMS5003;51921;51.518;-3.188;2023-05-07T06:19:20;7;7;
60816;PMS5003;51921;51.518;-3.188;2023-05-07T06:21:45;7;6;
60816;PMS5003;51921;51.518;-3.188;2023-05-07T06:24:11;6;6;
60816;PMS5003;51921;51.518;-3.188;2023-05-07T06:26:36;8;7;
60816;PMS5003;51921;51.518;-3.188;2023-05-07T06:29:02;6;6;
60816;PMS5003;51921;51.518;-3.188;2023-05-07T06:31:29;7;7;
60816;PMS5003;51921;51.518;-3.188;2023-05-07T06:33:52;8;6;
60816;PMS5003;51921;51.518;-3.188;2023-05-07T06:36:18;7;6;
60816;PMS5003;51921;51.518;-3.188;2023-05-07T06:38:43;7;6;
60816;PMS5003;51921;51.518;-3.188;2023-05-07T06:41:09;7;7;
60816;PMS5003;51921;51.518;-3.188;2023-05-07T06:43:34;7;6;
60816;PMS5003;51921;51.518;-3.188;2023-05-07T06:46:00;6;6;
60816;PMS5003;51921;51.518;-3.188;2023-05-07T06:48:25;9;8;
60816;PMS5003;51921;51.518;-3.188;2023-05-07T06:50:51;6;6;
60816;PMS5003;51921;51.518;-3.188;2023-05-07T06:53:16;6;6;
60816;PMS5003;51921;51.518;-3.188;2023-05-07T06:55:42;7;7;
60816;PMS5003;51921;51.518;-3.188;2023-05-07T06:58:07;6;6;
60816;PMS5003;51921;51.518;-3.188;2023-05-07T07:00:32;6;6;
60816;PMS5003;51921;51.518;-3.188;2023-05-07T07:02:58;4;4;
60816;PMS5003;51921;51.518;-3.188;2023-05-07T07:05:23;4;4;
60816;PMS5003;51921;51.518;-3.188;2023-05-07T07:07:49;6;5;
60816;PMS5003;51921;51.518;-3.188;2023-05-07T07:10:14;6;6;
60816;PMS5003;51921;51.518;-3.188;2023-05-07T07:12:39;4;4;
60816;PMS5003;51921;51.518;-3.188;2023-05-07T07:15:05;8;6;
60816;PMS5003;51921;51.518;-3.188;2023-05-07T07:17:30;6;5;
60816;PMS5003;51921;51.518;-3.188;2023-05-07T07:19:55;4;4;
60816;PMS5003;51921;51.518;-3.188;2023-05-07T07:22:21;7;7;
60816;PMS5003;51921;51.518;-3.188;2023-05-07T07:24:46;5;4;
60816;PMS5003;51921;51.518;-3.188;2023-05-07T07:27:12;4;4;
60816;PMS5003;51921;51.518;-3.188;2023-05-07T07:29:37;6;6;
60816;PMS5003;51921;51.518;-3.188;2023-05-07T07:32:02;7;6;
60816;PMS5003;51921;51.518;-3.188;2023-05-07T07:34:28;5;5;
60816;PMS5003;51921;51.518;-3.188;2023-05-07T07:36:53;4;4;
60816;PMS5003;51921;51.518;-3.188;2023-05-07T07:39:19;6;6;
60816;PMS5003;51921;51.518;-3.188;2023-05-07T07:41:44;5;5;
60816;PMS5003;51921;51.518;-3.188;2023-05-07T07:44:10;5;5;
60816;PMS5003;51921;51.518;-3.188;2023-05-07T07:46:35;7;6;
60816;PMS5003;51921;51.518;-3.188;2023-05-07T07:49:00;6;4;
60816;PMS5003;51921;51.518;-3.188;2023-05-07T07:51:26;6;5;
60816;PMS5003;51921;51.518;-3.188;2023-05-07T07:53:51;7;7;
60816;PMS5003;51921;51.518;-3.188;2023-05-07T07:56:17;4;4;
60816;PMS5003;51921;51.518;-3.188;2023-05-07T07:58:42;5;5;
60816;PMS5003;51921;51.518;-3.188;2023-05-07T08:01:08;6;6;
60816;PMS5003;51921;51.518;-3.188;2023-05-07T08:03:33;5;5;
60816;PMS5003;51921;51.518;-3.188;2023-05-07T08:06:00;5;4;
60816;PMS5003;51921;51.518;-3.188;2023-05-07T08:08:24;5;5;
60816;PMS5003;51921;51.518;-3.188;2023-05-07T08:10:50;5;4;
60816;PMS5003;51921;51.518;-3.188;2023-05-07T08:13:15;5;5;
60816;PMS5003;51921;51.518;-3.188;2023-05-07T08:15:40;3;3;
60816;PMS5003;51921;51.518;-3.188;2023-05-07T08:18:06;7;5;
60816;PMS5003;51921;51.518;-3.188;2023-05-07T08:20:31;6;5;
60816;PMS5003;51921;51.518;-3.188;2023-05-07T08:22:57;5;5;
60816;PMS5003;51921;51.518;-3.188;2023-05-07T08:25:22;4;4;
60816;PMS5003;51921;51.518;-3.188;2023-05-07T08:27:47;5;5;
60816;PMS5003;51921;51.518;-3.188;2023-05-07T08:30:13;6;6;
60816;PMS5003;51921;51.518;-3.188;2023-05-07T08:32:38;6;6;
60816;PMS5003;51921;51.518;-3.188;2023-05-07T08:35:04;4;4;
60816;PMS5003;51921;51.518;-3.188;2023-05-07T08:37:29;6;5;
60816;PMS5003;51921;51.518;-3.188;2023-05-07T08:39:54;7;7;
60816;PMS5003;51921;51.518;-3.188;2023-05-07T08:42:19;3;3;
60816;PMS5003;51921;51.518;-3.188;2023-05-07T08:44:45;5;4;
60816;PMS5003;51921;51.518;-3.188;2023-05-07T08:47:10;4;4;
60816;PMS5003;51921;51.518;-3.188;2023-05-07T08:49:35;4;3;
60816;PMS5003;51921;51.518;-3.188;2023-05-07T08:52:01;4;4;
60816;PMS5003;51921;51.518;-3.188;2023-05-07T08:54:26;3;3;
60816;PMS5003;51921;51.518;-3.188;2023-05-07T08:56:52;4;4;
60816;PMS5003;51921;51.518;-3.188;2023-05-07T08:59:17;6;6;
60816;PMS5003;51921;51.518;-3.188;2023-05-07T09:01:43;4;4;
60816;PMS5003;51921;51.518;-3.188;2023-05-07T09:04:08;2;2;
60816;PMS5003;51921;51.518;-3.188;2023-05-07T09:06:33;3;3;
60816;PMS5003;51921;51.518;-3.188;2023-05-07T09:08:59;4;3;
60816;PMS5003;51921;51.518;-3.188;2023-05-07T09:11:24;5;4;
60816;PMS5003;51921;51.518;-3.188;2023-05-07T09:13:53;4;4;
60816;PMS5003;51921;51.518;-3.188;2023-05-07T09:16:15;3;3;
60816;PMS5003;51921;51.518;-3.188;2023-05-07T09:18:41;4;3;
60816;PMS5003;51921;51.518;-3.188;2023-05-07T09:21:06;5;5;
60816;PMS5003;51921;51.518;-3.188;2023-05-07T09:23:31;4;4;
60816;PMS5003;51921;51.518;-3.188;2023-05-07T09:26:00;3;3;
60816;PMS5003;51921;51.518;-3.188;2023-05-07T09:28:22;4;4;
60816;PMS5003;51921;51.518;-3.188;2023-05-07T09:30:47;4;4;
60816;PMS5003;51921;51.518;-3.188;2023-05-07T09:33:13;5;5;
60816;PMS5003;51921;51.518;-3.188;2023-05-07T09:35:38;5;4;
60816;PMS5003;51921;51.518;-3.188;2023-05-07T09:38:04;4;4;
60816;PMS5003;51921;51.518;-3.188;2023-05-07T09:40:30;4;4;
60816;PMS5003;51921;51.518;-3.188;2023-05-07T09:42:54;4;4;
60816;PMS5003;51921;51.518;-3.188;2023-05-07T09:45:24;4;3;
60816;PMS5003;51921;51.518;-3.188;2023-05-07T09:47:45;4;4;
60816;PMS5003;51921;51.518;-3.188;2023-05-07T09:50:11;3;3;
60816;PMS5003;51921;51.518;-3.188;2023-05-07T09:52:36;4;3;
60816;PMS5003;51921;51.518;-3.188;2023-05-07T09:55:02;4;3;
60816;PMS5003;51921;51.518;-3.188;2023-05-07T09:57:27;5;5;
60816;PMS5003;51921;51.518;-3.188;2023-05-07T09:59:52;4;3;
60816;PMS5003;51921;51.518;-3.188;2023-05-07T10:02:17;3;2;
60816;PMS5003;51921;51.518;-3.188;2023-05-07T10:04:43;6;5;
60816;PMS5003;51921;51.518;-3.188;2023-05-07T10:07:08;5;5;
60816;PMS5003;51921;51.518;-3.188;2023-05-07T10:09:34;20;18;
60816;PMS5003;51921;51.518;-3.188;2023-05-07T10:11:59;22;21;
60816;PMS5003;51921;51.518;-3.188;2023-05-07T10:14:24;20;20;
60816;PMS5003;51921;51.518;-3.188;2023-05-07T10:16:50;24;23;
60816;PMS5003;51921;51.518;-3.188;2023-05-07T10:19:15;27;25;
60816;PMS5003;51921;51.518;-3.188;2023-05-07T10:21:43;33;28;
60816;PMS5003;51921;51.518;-3.188;2023-05-07T10:24:08;31;31;
60816;PMS5003;51921;51.518;-3.188;2023-05-07T10:26:31;35;30;
60816;PMS5003;51921;51.518;-3.188;2023-05-07T10:28:57;34;33;
60816;PMS5003;51921;51.518;-3.188;2023-05-07T10:31:26;33;33;
60816;PMS5003;51921;51.518;-3.188;2023-05-07T10:33:46;38;31;
60816;PMS5003;51921;51.518;-3.188;2023-05-07T10:36:12;33;29;
60816;PMS5003;51921;51.518;-3.188;2023-05-07T10:38:37;31;28;
60816;PMS5003;51921;51.518;-3.188;2023-05-07T10:41:03;33;31;
60816;PMS5003;51921;51.518;-3.188;2023-05-07T10:48:19;31;29;
60816;PMS5003;51921;51.518;-3.188;2023-05-07T10:50:44;30;30;
60816;PMS5003;51921;51.518;-3.188;2023-05-07T10:55:35;26;24;
60816;PMS5003;51921;51.518;-3.188;2023-05-07T11:05:19;22;21;
60816;PMS5003;51921;51.518;-3.188;2023-05-07T11:07:42;20;19;
60816;PMS5003;51921;51.518;-3.188;2023-05-07T11:10:07;19;17;
60816;PMS5003;51921;51.518;-3.188;2023-05-07T11:14:58;23;21;
60816;PMS5003;51921;51.518;-3.188;2023-05-07T11:17:23;22;20;
60816;PMS5003;51921;51.518;-3.188;2023-05-07T11:19:49;13;12;
60816;PMS5003;51921;51.518;-3.188;2023-05-07T11:24:39;11;10;
60816;PMS5003;51921;51.518;-3.188;2023-05-07T11:27:04;7;6;
60816;PMS5003;51921;51.518;-3.188;2023-05-07T11:29:30;4;3;
60816;PMS5003;51921;51.518;-3.188;2023-05-07T11:31:55;4;4;
60816;PMS5003;51921;51.518;-3.188;2023-05-07T11:34:21;5;5;
60816;PMS5003;51921;51.518;-3.188;2023-05-07T11:36:46;4;4;
60816;PMS5003;51921;51.518;-3.188;2023-05-07T11:41:37;5;5;
60816;PMS5003;51921;51.518;-3.188;2023-05-07T11:44:02;5;5;
60816;PMS5003;51921;51.518;-3.188;2023-05-07T11:46:27;6;5;
60816;PMS5003;51921;51.518;-3.188;2023-05-07T11:48:52;4;4;
60816;PMS5003;51921;51.518;-3.188;2023-05-07T11:51:19;5;4;
60816;PMS5003;51921;51.518;-3.188;2023-05-07T11:53:43;4;4;
60816;PMS5003;51921;51.518;-3.188;2023-05-07T11:56:09;4;4;
60816;PMS5003;51921;51.518;-3.188;2023-05-07T11:58:34;6;6;
60816;PMS5003;51921;51.518;-3.188;2023-05-07T12:01:00;5;5;
60816;PMS5003;51921;51.518;-3.188;2023-05-07T12:03:25;3;3;
60816;PMS5003;51921;51.518;-3.188;2023-05-07T12:05:50;5;5;
60816;PMS5003;51921;51.518;-3.188;2023-05-07T12:08:21;6;5;
60816;PMS5003;51921;51.518;-3.188;2023-05-07T12:10:41;7;5;
60816;PMS5003;51921;51.518;-3.188;2023-05-07T12:15:34;4;4;
60816;PMS5003;51921;51.518;-3.188;2023-05-07T12:17:57;6;6;
60816;PMS5003;51921;51.518;-3.188;2023-05-07T12:20:23;4;3;
60816;PMS5003;51921;51.518;-3.188;2023-05-07T12:22:48;4;4;
60816;PMS5003;51921;51.518;-3.188;2023-05-07T12:25:14;3;3;
60816;PMS5003;51921;51.518;-3.188;2023-05-07T12:27:40;3;3;
60816;PMS5003;51921;51.518;-3.188;2023-05-07T12:30:05;4;4;
60816;PMS5003;51921;51.518;-3.188;2023-05-07T12:32:30;3;3;
60816;PMS5003;51921;51.518;-3.188;2023-05-07T12:34:55;3;3;
60816;PMS5003;51921;51.518;-3.188;2023-05-07T12:37:22;2;2;
60816;PMS5003;51921;51.518;-3.188;2023-05-07T12:39:47;5;4;
60816;PMS5003;51921;51.518;-3.188;2023-05-07T12:42:14;3;3;
60816;PMS5003;51921;51.518;-3.188;2023-05-07T12:44:37;3;3;
60816;PMS5003;51921;51.518;-3.188;2023-05-07T12:47:02;8;5;
60816;PMS5003;51921;51.518;-3.188;2023-05-07T12:49:27;3;3;
60816;PMS5003;51921;51.518;-3.188;2023-05-07T12:51:53;3;3;
60816;PMS5003;51921;51.518;-3.188;2023-05-07T12:56:44;5;5;
60816;PMS5003;51921;51.518;-3.188;2023-05-07T12:59:09;4;4;
60816;PMS5003;51921;51.518;-3.188;2023-05-07T13:01:34;4;4;
60816;PMS5003;51921;51.518;-3.188;2023-05-07T13:04:00;4;4;
60816;PMS5003;51921;51.518;-3.188;2023-05-07T13:06:25;3;3;
60816;PMS5003;51921;51.518;-3.188;2023-05-07T13:08:51;4;3;
60816;PMS5003;51921;51.518;-3.188;2023-05-07T13:11:16;3;3;
60816;PMS5003;51921;51.518;-3.188;2023-05-07T13:13:41;4;4;
60816;PMS5003;51921;51.518;-3.188;2023-05-07T13:16:08;4;4;
60816;PMS5003;51921;51.518;-3.188;2023-05-07T13:18:33;4;4;
60816;PMS5003;51921;51.518;-3.188;2023-05-07T13:20:58;3;2;
60816;PMS5003;51921;51.518;-3.188;2023-05-07T13:23:23;4;3;
60816;PMS5003;51921;51.518;-3.188;2023-05-07T13:25:48;4;3;
60816;PMS5003;51921;51.518;-3.188;2023-05-07T13:28:14;2;2;
60816;PMS5003;51921;51.518;-3.188;2023-05-07T13:30:39;5;5;
60816;PMS5003;51921;51.518;-3.188;2023-05-07T13:33:04;3;2;
60816;PMS5003;51921;51.518;-3.188;2023-05-07T13:35:30;6;6;
60816;PMS5003;51921;51.518;-3.188;2023-05-07T13:37:55;5;4;
60816;PMS5003;51921;51.518;-3.188;2023-05-07T13:40:21;5;5;
60816;PMS5003;51921;51.518;-3.188;2023-05-07T13:42:46;3;3;
60816;PMS5003;51921;51.518;-3.188;2023-05-07T13:45:11;4;3;
60816;PMS5003;51921;51.518;-3.188;2023-05-07T13:47:37;2;2;
60816;PMS5003;51921;51.518;-3.188;2023-05-07T13:50:02;2;2;
60816;PMS5003;51921;51.518;-3.188;2023-05-07T13:52:27;1;1;
60816;PMS5003;51921;51.518;-3.188;2023-05-07T13:54:53;3;3;
60816;PMS5003;51921;51.518;-3.188;2023-05-07T13:57:18;4;3;
60816;PMS5003;51921;51.518;-3.188;2023-05-07T13:59:44;4;3;
60816;PMS5003;51921;51.518;-3.188;2023-05-07T14:02:09;5;4;
60816;PMS5003;51921;51.518;-3.188;2023-05-07T14:04:34;3;3;
60816;PMS5003;51921;51.518;-3.188;2023-05-07T14:06:59;2;1;
60816;PMS5003;51921;51.518;-3.188;2023-05-07T14:09:25;2;2;
60816;PMS5003;51921;51.518;-3.188;2023-05-07T14:11:50;3;2;
60816;PMS5003;51921;51.518;-3.188;2023-05-07T14:14:15;0;0;
60816;PMS5003;51921;51.518;-3.188;2023-05-07T14:16:41;1;1;
60816;PMS5003;51921;51.518;-3.188;2023-05-07T14:19:06;1;1;
60816;PMS5003;51921;51.518;-3.188;2023-05-07T14:21:32;3;2;
60816;PMS5003;51921;51.518;-3.188;2023-05-07T14:23:57;3;2;
60816;PMS5003;51921;51.518;-3.188;2023-05-07T14:26:22;2;2;
60816;PMS5003;51921;51.518;-3.188;2023-05-07T14:28:48;1;1;
60816;PMS5003;51921;51.518;-3.188;2023-05-07T14:31:13;4;3;
60816;PMS5003;51921;51.518;-3.188;2023-05-07T14:33:38;2;2;
60816;PMS5003;51921;51.518;-3.188;2023-05-07T14:36:04;2;2;
60816;PMS5003;51921;51.518;-3.188;2023-05-07T14:38:29;3;2;
60816;PMS5003;51921;51.518;-3.188;2023-05-07T14:40:54;2;2;
60816;PMS5003;51921;51.518;-3.188;2023-05-07T14:43:20;2;2;
60816;PMS5003;51921;51.518;-3.188;2023-05-07T14:45:45;2;2;
60816;PMS5003;51921;51.518;-3.188;2023-05-07T14:48:11;3;3;
60816;PMS5003;51921;51.518;-3.188;2023-05-07T14:50:36;1;1;
60816;PMS5003;51921;51.518;-3.188;2023-05-07T14:53:01;2;2;
60816;PMS5003;51921;51.518;-3.188;2023-05-07T14:55:27;3;2;
60816;PMS5003;51921;51.518;-3.188;2023-05-07T14:57:52;3;3;
60816;PMS5003;51921;51.518;-3.188;2023-05-07T15:00:18;2;2;
60816;PMS5003;51921;51.518;-3.188;2023-05-07T15:02:43;2;2;
60816;PMS5003;51921;51.518;-3.188;2023-05-07T15:05:08;4;4;
60816;PMS5003;51921;51.518;-3.188;2023-05-07T15:07:34;4;3;
60816;PMS5003;51921;51.518;-3.188;2023-05-07T15:09:59;3;3;
60816;PMS5003;51921;51.518;-3.188;2023-05-07T15:12:24;3;3;
60816;PMS5003;51921;51.518;-3.188;2023-05-07T15:14:50;3;3;
60816;PMS5003;51921;51.518;-3.188;2023-05-07T15:17:15;3;3;
60816;PMS5003;51921;51.518;-3.188;2023-05-07T15:19:40;6;5;
60816;PMS5003;51921;51.518;-3.188;2023-05-07T15:22:06;3;2;
60816;PMS5003;51921;51.518;-3.188;2023-05-07T15:24:31;4;3;
60816;PMS5003;51921;51.518;-3.188;2023-05-07T15:26:57;3;2;
60816;PMS5003;51921;51.518;-3.188;2023-05-07T15:29:22;3;1;
60816;PMS5003;51921;51.518;-3.188;2023-05-07T15:31:47;2;2;
60816;PMS5003;51921;51.518;-3.188;2023-05-07T15:34:13;2;1;
60816;PMS5003;51921;51.518;-3.188;2023-05-07T15:36:38;3;3;
60816;PMS5003;51921;51.518;-3.188;2023-05-07T15:39:03;3;3;
60816;PMS5003;51921;51.518;-3.188;2023-05-07T15:41:28;3;2;
60816;PMS5003;51921;51.518;-3.188;2023-05-07T15:43:54;3;2;
60816;PMS5003;51921;51.518;-3.188;2023-05-07T15:46:19;3;3;
60816;PMS5003;51921;51.518;-3.188;2023-05-07T15:48:44;2;2;
60816;PMS5003;51921;51.518;-3.188;2023-05-07T15:51:10;2;2;
60816;PMS5003;51921;51.518;-3.188;2023-05-07T15:53:35;2;1;
60816;PMS5003;51921;51.518;-3.188;2023-05-07T15:56:00;2;2;
60816;PMS5003;51921;51.518;-3.188;2023-05-07T15:58:26;2;2;
60816;PMS5003;51921;51.518;-3.188;2023-05-07T16:00:51;1;1;
60816;PMS5003;51921;51.518;-3.188;2023-05-07T16:03:17;2;2;
60816;PMS5003;51921;51.518;-3.188;2023-05-07T16:05:42;3;3;
60816;PMS5003;51921;51.518;-3.188;2023-05-07T16:08:07;2;2;
60816;PMS5003;51921;51.518;-3.188;2023-05-07T16:10:33;1;1;
60816;PMS5003;51921;51.518;-3.188;2023-05-07T16:12:58;1;1;
60816;PMS5003;51921;51.518;-3.188;2023-05-07T16:15:23;2;2;
60816;PMS5003;51921;51.518;-3.188;2023-05-07T16:17:49;1;1;
60816;PMS5003;51921;51.518;-3.188;2023-05-07T16:20:14;2;2;
60816;PMS5003;51921;51.518;-3.188;2023-05-07T16:22:40;1;1;
60816;PMS5003;51921;51.518;-3.188;2023-05-07T16:25:05;2;2;
60816;PMS5003;51921;51.518;-3.188;2023-05-07T16:27:30;2;2;
60816;PMS5003;51921;51.518;-3.188;2023-05-07T16:29:56;4;3;
60816;PMS5003;51921;51.518;-3.188;2023-05-07T16:32:21;1;1;
60816;PMS5003;51921;51.518;-3.188;2023-05-07T16:34:46;2;2;
60816;PMS5003;51921;51.518;-3.188;2023-05-07T16:37:12;1;1;